sensor_id;sensor_type;location;lat;lon;timestamp;temperature;humidity
4002;DHT22;2015;48.670;9.060;2022-11-20T00:00:52;5.50;99.90
4002;DHT22;2015;48.670;9.060;2022-11-20T00:03:24;5.40;99.90
4002;DHT22;2015;48.670;9.060;2022-11-20T00:06:04;5.40;99.90
4002;DHT22;2015;48.670;9.060;2022-11-20T00:08:36;5.30;99.90
4002;DHT22;2015;48.670;9.060;2022-11-20T00:11:11;5.30;99.90
4002;DHT22;2015;48.670;9.060;2022-11-20T00:13:49;5.30;99.90
4002;DHT22;2015;48.670;9.060;2022-11-20T00:16:23;5.30;99.90
4002;DHT22;2015;48.670;9.060;2022-11-20T00:18:55;5.30;99.90
4002;DHT22;2015;48.670;9.060;2022-11-20T00:21:28;5.30;99.90
4002;DHT22;2015;48.670;9.060;2022-11-20T00:23:59;5.30;99.90
4002;DHT22;2015;48.670;9.060;2022-11-20T00:26:31;5.30;99.90
4002;DHT22;2015;48.670;9.060;2022-11-20T00:29:03;5.20;99.90
4002;DHT22;2015;48.670;9.060;2022-11-20T00:31:35;5.30;99.90
4002;DHT22;2015;48.670;9.060;2022-11-20T00:34:07;5.30;99.90
4002;DHT22;2015;48.670;9.060;2022-11-20T00:36:39;5.30;99.90
4002;DHT22;2015;48.670;9.060;2022-11-20T00:39:10;5.30;99.90
4002;DHT22;2015;48.670;9.060;2022-11-20T00:41:42;5.30;99.90
4002;DHT22;2015;48.670;9.060;2022-11-20T00:44:14;5.30;99.90
4002;DHT22;2015;48.670;9.060;2022-11-20T00:46:46;5.30;99.90
4002;DHT22;2015;48.670;9.060;2022-11-20T00:49:17;5.30;99.90
4002;DHT22;2015;48.670;9.060;2022-11-20T00:51:50;5.40;99.90
4002;DHT22;2015;48.670;9.060;2022-11-20T00:54:22;5.30;99.90
4002;DHT22;2015;48.670;9.060;2022-11-20T00:56:53;5.30;99.90
4002;DHT22;2015;48.670;9.060;2022-11-20T00:59:25;5.30;99.90
4002;DHT22;2015;48.670;9.060;2022-11-20T01:01:57;5.30;99.90
4002;DHT22;2015;48.670;9.060;2022-11-20T01:04:28;5.30;99.90
4002;DHT22;2015;48.670;9.060;2022-11-20T01:07:00;5.20;99.90
4002;DHT22;2015;48.670;9.060;2022-11-20T01:09:32;5.20;99.90
4002;DHT22;2015;48.670;9.060;2022-11-20T01:12:04;5.10;99.90
4002;DHT22;2015;48.670;9.060;2022-11-20T01:14:36;5.10;99.90
4002;DHT22;2015;48.670;9.060;2022-11-20T01:17:08;5.10;99.90
4002;DHT22;2015;48.670;9.060;2022-11-20T01:19:40;5.10;99.90
4002;DHT22;2015;48.670;9.060;2022-11-20T01:22:11;5.00;99.90
4002;DHT22;2015;48.670;9.060;2022-11-20T01:24:43;4.90;99.90
4002;DHT22;2015;48.670;9.060;2022-11-20T01:27:15;4.90;99.90
4002;DHT22;2015;48.670;9.060;2022-11-20T01:29:47;4.90;99.90
4002;DHT22;2015;48.670;9.060;2022-11-20T01:32:18;4.80;99.90
4002;DHT22;2015;48.670;9.060;2022-11-20T01:34:50;4.70;99.90
4002;DHT22;2015;48.670;9.060;2022-11-20T01:37:23;4.70;99.90
4002;DHT22;2015;48.670;9.060;2022-11-20T01:39:54;4.60;99.90
4002;DHT22;2015;48.670;9.060;2022-11-20T01:42:27;4.60;99.90
4002;DHT22;2015;48.670;9.060;2022-11-20T01:51:38;4.40;99.90
4002;DHT22;2015;48.670;9.060;2022-11-20T01:54:18;4.50;99.90
4002;DHT22;2015;48.670;9.060;2022-11-20T01:56:52;4.50;99.90
4002;DHT22;2015;48.670;9.060;2022-11-20T01:59:28;4.50;99.90
4002;DHT22;2015;48.670;9.060;2022-11-20T02:02:01;4.50;99.90
4002;DHT22;2015;48.670;9.060;2022-11-20T02:04:32;4.40;99.90
4002;DHT22;2015;48.670;9.060;2022-11-20T02:07:05;4.50;99.90
4002;DHT22;2015;48.670;9.060;2022-11-20T02:09:37;4.50;99.90
4002;DHT22;2015;48.670;9.060;2022-11-20T02:12:09;4.50;99.90
4002;DHT22;2015;48.670;9.060;2022-11-20T02:15:01;4.40;99.90
4002;DHT22;2015;48.670;9.060;2022-11-20T02:17:33;4.40;99.90
4002;DHT22;2015;48.670;9.060;2022-11-20T02:20:06;4.40;99.90
4002;DHT22;2015;48.670;9.060;2022-11-20T02:25:47;4.40;99.90
4002;DHT22;2015;48.670;9.060;2022-11-20T02:28:19;4.30;99.90
4002;DHT22;2015;48.670;9.060;2022-11-20T02:30:51;4.30;99.90
4002;DHT22;2015;48.670;9.060;2022-11-20T02:33:22;4.20;99.90
4002;DHT22;2015;48.670;9.060;2022-11-20T02:35:54;4.20;99.90
4002;DHT22;2015;48.670;9.060;2022-11-20T02:38:26;4.20;99.90
4002;DHT22;2015;48.670;9.060;2022-11-20T02:40:58;4.20;99.90
4002;DHT22;2015;48.670;9.060;2022-11-20T02:43:30;4.30;99.90
4002;DHT22;2015;48.670;9.060;2022-11-20T02:46:01;4.40;99.90
4002;DHT22;2015;48.670;9.060;2022-11-20T02:48:34;4.40;99.90
4002;DHT22;2015;48.670;9.060;2022-11-20T02:51:06;4.40;99.90
4002;DHT22;2015;48.670;9.060;2022-11-20T02:53:37;4.40;99.90
4002;DHT22;2015;48.670;9.060;2022-11-20T02:56:09;4.30;99.90
4002;DHT22;2015;48.670;9.060;2022-11-20T02:58:41;4.30;99.90
4002;DHT22;2015;48.670;9.060;2022-11-20T03:01:13;4.30;99.90
4002;DHT22;2015;48.670;9.060;2022-11-20T03:03:45;4.30;99.90
4002;DHT22;2015;48.670;9.060;2022-11-20T03:06:20;4.50;99.90
4002;DHT22;2015;48.670;9.060;2022-11-20T03:08:51;4.50;99.90
4002;DHT22;2015;48.670;9.060;2022-11-20T03:11:23;4.60;99.90
4002;DHT22;2015;48.670;9.060;2022-11-20T03:13:55;4.70;99.90
4002;DHT22;2015;48.670;9.060;2022-11-20T03:16:27;4.80;99.90
4002;DHT22;2015;48.670;9.060;2022-11-20T03:18:59;4.80;99.90
4002;DHT22;2015;48.670;9.060;2022-11-20T03:21:33;4.80;99.90
4002;DHT22;2015;48.670;9.060;2022-11-20T03:24:05;4.80;99.90
4002;DHT22;2015;48.670;9.060;2022-11-20T03:26:39;4.80;99.90
4002;DHT22;2015;48.670;9.060;2022-11-20T03:29:11;4.80;99.90
4002;DHT22;2015;48.670;9.060;2022-11-20T03:31:43;4.80;99.90
4002;DHT22;2015;48.670;9.060;2022-11-20T03:34:14;4.80;99.90
4002;DHT22;2015;48.670;9.060;2022-11-20T03:36:46;4.80;99.90
4002;DHT22;2015;48.670;9.060;2022-11-20T03:39:18;4.70;99.90
4002;DHT22;2015;48.670;9.060;2022-11-20T03:41:50;4.70;99.90
4002;DHT22;2015;48.670;9.060;2022-11-20T03:44:22;4.60;99.90
4002;DHT22;2015;48.670;9.060;2022-11-20T03:46:54;4.60;99.90
4002;DHT22;2015;48.670;9.060;2022-11-20T03:49:25;4.50;99.90
4002;DHT22;2015;48.670;9.060;2022-11-20T03:51:57;4.40;99.90
4002;DHT22;2015;48.670;9.060;2022-11-20T03:54:29;4.30;99.90
4002;DHT22;2015;48.670;9.060;2022-11-20T03:57:02;4.30;99.90
4002;DHT22;2015;48.670;9.060;2022-11-20T03:59:34;4.20;99.90
4002;DHT22;2015;48.670;9.060;2022-11-20T04:02:06;4.20;99.90
4002;DHT22;2015;48.670;9.060;2022-11-20T04:04:38;4.20;99.90
4002;DHT22;2015;48.670;9.060;2022-11-20T04:07:10;4.20;99.90
4002;DHT22;2015;48.670;9.060;2022-11-20T04:09:41;4.20;99.90
4002;DHT22;2015;48.670;9.060;2022-11-20T04:12:13;4.20;99.90
4002;DHT22;2015;48.670;9.060;2022-11-20T04:14:45;4.30;99.90
4002;DHT22;2015;48.670;9.060;2022-11-20T04:17:17;4.20;99.90
4002;DHT22;2015;48.670;9.060;2022-11-20T04:19:49;4.30;99.90
4002;DHT22;2015;48.670;9.060;2022-11-20T04:22:21;4.30;99.90
4002;DHT22;2015;48.670;9.060;2022-11-20T04:24:53;4.30;99.90
4002;DHT22;2015;48.670;9.060;2022-11-20T04:27:25;4.30;99.90
4002;DHT22;2015;48.670;9.060;2022-11-20T04:29:57;4.30;99.90
4002;DHT22;2015;48.670;9.060;2022-11-20T04:32:28;4.40;99.90
4002;DHT22;2015;48.670;9.060;2022-11-20T04:35:00;4.40;99.90
4002;DHT22;2015;48.670;9.060;2022-11-20T04:37:33;4.40;99.90
4002;DHT22;2015;48.670;9.060;2022-11-20T04:40:05;4.40;99.90
4002;DHT22;2015;48.670;9.060;2022-11-20T04:42:37;4.40;99.90
4002;DHT22;2015;48.670;9.060;2022-11-20T04:45:09;4.40;99.90
4002;DHT22;2015;48.670;9.060;2022-11-20T04:47:41;4.50;99.90
4002;DHT22;2015;48.670;9.060;2022-11-20T04:50:13;4.50;99.90
4002;DHT22;2015;48.670;9.060;2022-11-20T04:52:45;4.60;99.90
4002;DHT22;2015;48.670;9.060;2022-11-20T04:55:17;4.60;99.90
4002;DHT22;2015;48.670;9.060;2022-11-20T04:57:50;4.70;99.90
4002;DHT22;2015;48.670;9.060;2022-11-20T05:00:22;4.70;99.90
4002;DHT22;2015;48.670;9.060;2022-11-20T05:02:55;4.70;99.90
4002;DHT22;2015;48.670;9.060;2022-11-20T05:05:27;4.80;99.90
4002;DHT22;2015;48.670;9.060;2022-11-20T05:07:59;4.80;99.90
4002;DHT22;2015;48.670;9.060;2022-11-20T05:10:30;4.90;99.90
4002;DHT22;2015;48.670;9.060;2022-11-20T05:13:02;4.90;99.90
4002;DHT22;2015;48.670;9.060;2022-11-20T05:15:34;4.90;99.90
4002;DHT22;2015;48.670;9.060;2022-11-20T05:18:08;4.90;99.90
4002;DHT22;2015;48.670;9.060;2022-11-20T05:20:39;4.90;99.90
4002;DHT22;2015;48.670;9.060;2022-11-20T05:23:11;4.90;99.90
4002;DHT22;2015;48.670;9.060;2022-11-20T05:25:43;5.00;99.90
4002;DHT22;2015;48.670;9.060;2022-11-20T05:28:15;5.00;99.90
4002;DHT22;2015;48.670;9.060;2022-11-20T05:30:47;5.00;99.90
4002;DHT22;2015;48.670;9.060;2022-11-20T05:33:19;5.00;99.90
4002;DHT22;2015;48.670;9.060;2022-11-20T05:35:51;5.00;99.90
4002;DHT22;2015;48.670;9.060;2022-11-20T05:38:23;5.00;99.90
4002;DHT22;2015;48.670;9.060;2022-11-20T05:41:02;5.00;99.90
4002;DHT22;2015;48.670;9.060;2022-11-20T05:43:35;5.00;99.90
4002;DHT22;2015;48.670;9.060;2022-11-20T05:46:08;4.90;99.90
4002;DHT22;2015;48.670;9.060;2022-11-20T05:48:41;4.90;99.90
4002;DHT22;2015;48.670;9.060;2022-11-20T05:51:16;4.90;99.90
4002;DHT22;2015;48.670;9.060;2022-11-20T05:53:49;5.00;99.90
4002;DHT22;2015;48.670;9.060;2022-11-20T05:56:22;5.00;99.90
4002;DHT22;2015;48.670;9.060;2022-11-20T05:58:53;5.00;99.90
4002;DHT22;2015;48.670;9.060;2022-11-20T06:01:26;5.00;99.90
4002;DHT22;2015;48.670;9.060;2022-11-20T06:03:58;5.10;99.90
4002;DHT22;2015;48.670;9.060;2022-11-20T06:06:29;5.10;99.90
4002;DHT22;2015;48.670;9.060;2022-11-20T06:09:01;5.10;99.90
4002;DHT22;2015;48.670;9.060;2022-11-20T06:11:33;5.10;99.90
4002;DHT22;2015;48.670;9.060;2022-11-20T06:14:05;5.10;99.90
4002;DHT22;2015;48.670;9.060;2022-11-20T06:16:37;5.10;99.90
4002;DHT22;2015;48.670;9.060;2022-11-20T06:19:09;5.10;99.90
4002;DHT22;2015;48.670;9.060;2022-11-20T06:21:41;5.10;99.90
4002;DHT22;2015;48.670;9.060;2022-11-20T06:24:13;5.10;99.90
4002;DHT22;2015;48.670;9.060;2022-11-20T06:26:45;5.10;99.90
4002;DHT22;2015;48.670;9.060;2022-11-20T06:29:16;5.10;99.90
4002;DHT22;2015;48.670;9.060;2022-11-20T06:31:49;5.10;99.90
4002;DHT22;2015;48.670;9.060;2022-11-20T06:34:21;5.10;99.90
4002;DHT22;2015;48.670;9.060;2022-11-20T06:36:53;5.10;99.90
4002;DHT22;2015;48.670;9.060;2022-11-20T06:39:25;5.10;99.90
4002;DHT22;2015;48.670;9.060;2022-11-20T06:41:57;5.10;99.90
4002;DHT22;2015;48.670;9.060;2022-11-20T06:44:30;5.10;99.90
4002;DHT22;2015;48.670;9.060;2022-11-20T06:47:02;5.00;99.90
4002;DHT22;2015;48.670;9.060;2022-11-20T06:49:34;5.00;99.90
4002;DHT22;2015;48.670;9.060;2022-11-20T06:52:08;5.00;99.90
4002;DHT22;2015;48.670;9.060;2022-11-20T06:54:40;5.10;99.90
4002;DHT22;2015;48.670;9.060;2022-11-20T06:57:12;5.10;99.90
4002;DHT22;2015;48.670;9.060;2022-11-20T06:59:43;5.10;99.90
4002;DHT22;2015;48.670;9.060;2022-11-20T07:02:15;5.10;99.90
4002;DHT22;2015;48.670;9.060;2022-11-20T07:04:47;5.10;99.90
4002;DHT22;2015;48.670;9.060;2022-11-20T07:07:19;5.10;99.90
4002;DHT22;2015;48.670;9.060;2022-11-20T07:09:50;5.10;99.90
4002;DHT22;2015;48.670;9.060;2022-11-20T07:12:22;5.10;99.90
4002;DHT22;2015;48.670;9.060;2022-11-20T07:14:54;5.20;99.90
4002;DHT22;2015;48.670;9.060;2022-11-20T07:17:26;5.20;99.90
4002;DHT22;2015;48.670;9.060;2022-11-20T07:19:58;5.20;99.90
4002;DHT22;2015;48.670;9.060;2022-11-20T07:22:30;5.20;99.90
4002;DHT22;2015;48.670;9.060;2022-11-20T07:25:01;5.30;99.90
4002;DHT22;2015;48.670;9.060;2022-11-20T07:27:33;5.20;99.90
4002;DHT22;2015;48.670;9.060;2022-11-20T07:30:06;5.20;99.90
4002;DHT22;2015;48.670;9.060;2022-11-20T07:32:38;5.20;99.90
4002;DHT22;2015;48.670;9.060;2022-11-20T07:35:10;5.20;99.90
4002;DHT22;2015;48.670;9.060;2022-11-20T07:37:42;5.10;99.90
4002;DHT22;2015;48.670;9.060;2022-11-20T07:40:14;5.10;99.90
4002;DHT22;2015;48.670;9.060;2022-11-20T07:42:51;5.20;99.90
4002;DHT22;2015;48.670;9.060;2022-11-20T07:45:24;5.20;99.90
4002;DHT22;2015;48.670;9.060;2022-11-20T07:47:56;5.30;99.90
4002;DHT22;2015;48.670;9.060;2022-11-20T07:50:27;5.40;99.90
4002;DHT22;2015;48.670;9.060;2022-11-20T07:53:05;5.40;99.90
4002;DHT22;2015;48.670;9.060;2022-11-20T07:55:37;5.50;99.90
4002;DHT22;2015;48.670;9.060;2022-11-20T07:58:09;5.50;99.90
4002;DHT22;2015;48.670;9.060;2022-11-20T08:00:41;5.50;99.90
4002;DHT22;2015;48.670;9.060;2022-11-20T08:03:14;5.60;99.90
4002;DHT22;2015;48.670;9.060;2022-11-20T08:05:59;5.60;99.90
4002;DHT22;2015;48.670;9.060;2022-11-20T08:08:32;5.60;99.90
4002;DHT22;2015;48.670;9.060;2022-11-20T08:11:10;5.70;99.90
4002;DHT22;2015;48.670;9.060;2022-11-20T08:14:01;5.80;99.90
4002;DHT22;2015;48.670;9.060;2022-11-20T08:16:46;5.80;99.90
4002;DHT22;2015;48.670;9.060;2022-11-20T08:19:18;5.90;99.90
4002;DHT22;2015;48.670;9.060;2022-11-20T08:21:51;6.00;99.90
4002;DHT22;2015;48.670;9.060;2022-11-20T08:24:23;6.00;99.90
4002;DHT22;2015;48.670;9.060;2022-11-20T08:26:59;6.00;99.90
4002;DHT22;2015;48.670;9.060;2022-11-20T08:29:31;5.90;99.90
4002;DHT22;2015;48.670;9.060;2022-11-20T08:32:03;6.00;99.90
4002;DHT22;2015;48.670;9.060;2022-11-20T08:34:35;6.00;99.90
4002;DHT22;2015;48.670;9.060;2022-11-20T08:37:08;6.00;99.90
4002;DHT22;2015;48.670;9.060;2022-11-20T08:39:40;6.10;99.90
4002;DHT22;2015;48.670;9.060;2022-11-20T08:42:11;6.10;99.90
4002;DHT22;2015;48.670;9.060;2022-11-20T08:44:43;6.10;99.90
4002;DHT22;2015;48.670;9.060;2022-11-20T08:47:15;6.20;99.90
4002;DHT22;2015;48.670;9.060;2022-11-20T08:49:47;6.30;99.90
4002;DHT22;2015;48.670;9.060;2022-11-20T08:52:19;6.30;99.90
4002;DHT22;2015;48.670;9.060;2022-11-20T08:54:50;6.40;99.90
4002;DHT22;2015;48.670;9.060;2022-11-20T08:57:22;6.40;99.90
4002;DHT22;2015;48.670;9.060;2022-11-20T08:59:55;6.50;99.90
4002;DHT22;2015;48.670;9.060;2022-11-20T09:02:40;6.60;99.90
4002;DHT22;2015;48.670;9.060;2022-11-20T09:05:11;6.70;99.90
4002;DHT22;2015;48.670;9.060;2022-11-20T09:07:43;6.70;99.90
4002;DHT22;2015;48.670;9.060;2022-11-20T09:10:15;6.70;99.90
4002;DHT22;2015;48.670;9.060;2022-11-20T09:12:55;6.70;99.90
4002;DHT22;2015;48.670;9.060;2022-11-20T09:15:27;6.80;99.90
4002;DHT22;2015;48.670;9.060;2022-11-20T09:18:00;6.80;99.90
4002;DHT22;2015;48.670;9.060;2022-11-20T09:20:33;6.80;99.90
4002;DHT22;2015;48.670;9.060;2022-11-20T09:23:05;6.70;99.90
4002;DHT22;2015;48.670;9.060;2022-11-20T09:25:38;6.70;99.90
4002;DHT22;2015;48.670;9.060;2022-11-20T09:28:10;6.70;99.90
4002;DHT22;2015;48.670;9.060;2022-11-20T09:30:42;6.60;99.90
4002;DHT22;2015;48.670;9.060;2022-11-20T09:33:13;6.60;99.90
4002;DHT22;2015;48.670;9.060;2022-11-20T09:35:45;6.60;99.90
4002;DHT22;2015;48.670;9.060;2022-11-20T09:38:17;6.60;99.90
4002;DHT22;2015;48.670;9.060;2022-11-20T09:41:06;6.70;99.90
4002;DHT22;2015;48.670;9.060;2022-11-20T09:46:41;6.60;99.90
4002;DHT22;2015;48.670;9.060;2022-11-20T09:49:33;6.70;99.90
4002;DHT22;2015;48.670;9.060;2022-11-20T09:55:20;6.70;99.90
4002;DHT22;2015;48.670;9.060;2022-11-20T09:57:54;6.70;99.90
4002;DHT22;2015;48.670;9.060;2022-11-20T10:00:28;6.60;99.90
4002;DHT22;2015;48.670;9.060;2022-11-20T10:06:15;6.50;99.90
4002;DHT22;2015;48.670;9.060;2022-11-20T10:08:55;6.60;99.90
4002;DHT22;2015;48.670;9.060;2022-11-20T10:11:35;6.60;99.90
4002;DHT22;2015;48.670;9.060;2022-11-20T10:19:54;6.50;99.90
4002;DHT22;2015;48.670;9.060;2022-11-20T10:25:32;6.50;99.90
4002;DHT22;2015;48.670;9.060;2022-11-20T10:31:00;6.50;99.90
4002;DHT22;2015;48.670;9.060;2022-11-20T10:33:40;6.50;99.90
4002;DHT22;2015;48.670;9.060;2022-11-20T10:36:44;6.40;99.90
4002;DHT22;2015;48.670;9.060;2022-11-20T10:39:22;6.40;99.90
4002;DHT22;2015;48.670;9.060;2022-11-20T10:41:56;6.40;99.90
4002;DHT22;2015;48.670;9.060;2022-11-20T10:44:29;6.50;99.90
4002;DHT22;2015;48.670;9.060;2022-11-20T10:47:27;6.40;99.90
4002;DHT22;2015;48.670;9.060;2022-11-20T10:50:04;6.40;99.90
4002;DHT22;2015;48.670;9.060;2022-11-20T10:55:57;6.40;99.90
4002;DHT22;2015;48.670;9.060;2022-11-20T11:01:20;6.50;99.90
4002;DHT22;2015;48.670;9.060;2022-11-20T11:03:55;6.50;99.90
4002;DHT22;2015;48.670;9.060;2022-11-20T11:06:42;6.60;99.90
4002;DHT22;2015;48.670;9.060;2022-11-20T11:09:21;6.70;99.90
4002;DHT22;2015;48.670;9.060;2022-11-20T11:11:55;7.00;99.90
4002;DHT22;2015;48.670;9.060;2022-11-20T11:14:28;7.20;99.90
4002;DHT22;2015;48.670;9.060;2022-11-20T11:16:59;7.30;99.90
4002;DHT22;2015;48.670;9.060;2022-11-20T11:19:32;7.30;99.90
4002;DHT22;2015;48.670;9.060;2022-11-20T11:22:10;7.40;99.90
4002;DHT22;2015;48.670;9.060;2022-11-20T11:24:53;7.40;99.90
4002;DHT22;2015;48.670;9.060;2022-11-20T11:27:25;7.40;99.90
4002;DHT22;2015;48.670;9.060;2022-11-20T11:30:14;7.40;99.90
4002;DHT22;2015;48.670;9.060;2022-11-20T11:32:47;7.50;99.90
4002;DHT22;2015;48.670;9.060;2022-11-20T11:35:25;7.40;99.90
4002;DHT22;2015;48.670;9.060;2022-11-20T11:38:10;7.50;99.90
4002;DHT22;2015;48.670;9.060;2022-11-20T11:40:44;7.60;99.90
4002;DHT22;2015;48.670;9.060;2022-11-20T11:43:25;7.70;99.90
4002;DHT22;2015;48.670;9.060;2022-11-20T12:00:22;7.70;99.90
4002;DHT22;2015;48.670;9.060;2022-11-20T12:03:03;7.80;99.90
4002;DHT22;2015;48.670;9.060;2022-11-20T12:05:42;7.80;99.90
4002;DHT22;2015;48.670;9.060;2022-11-20T12:08:43;7.90;99.90
4002;DHT22;2015;48.670;9.060;2022-11-20T12:11:43;7.90;99.90
4002;DHT22;2015;48.670;9.060;2022-11-20T12:14:40;7.90;99.90
4002;DHT22;2015;48.670;9.060;2022-11-20T12:17:12;7.90;99.90
4002;DHT22;2015;48.670;9.060;2022-11-20T12:19:44;8.10;99.90
4002;DHT22;2015;48.670;9.060;2022-11-20T12:25:26;8.10;99.90
4002;DHT22;2015;48.670;9.060;2022-11-20T12:34:37;8.20;99.90
4002;DHT22;2015;48.670;9.060;2022-11-20T12:43:31;8.60;99.90
4002;DHT22;2015;48.670;9.060;2022-11-20T12:46:47;8.60;99.90
4002;DHT22;2015;48.670;9.060;2022-11-20T12:50:06;8.50;99.90
4002;DHT22;2015;48.670;9.060;2022-11-20T12:52:56;8.40;99.90
4002;DHT22;2015;48.670;9.060;2022-11-20T13:01:25;8.20;99.90
4002;DHT22;2015;48.670;9.060;2022-11-20T13:06:49;8.20;99.90
4002;DHT22;2015;48.670;9.060;2022-11-20T13:09:22;8.10;99.90
4002;DHT22;2015;48.670;9.060;2022-11-20T13:14:49;7.90;99.90
4002;DHT22;2015;48.670;9.060;2022-11-20T13:17:30;7.90;99.90
4002;DHT22;2015;48.670;9.060;2022-11-20T13:20:13;7.90;99.90
4002;DHT22;2015;48.670;9.060;2022-11-20T13:25:34;8.10;99.90
4002;DHT22;2015;48.670;9.060;2022-11-20T13:30:51;8.10;99.90
4002;DHT22;2015;48.670;9.060;2022-11-20T13:33:34;8.20;99.90
4002;DHT22;2015;48.670;9.060;2022-11-20T13:36:21;8.10;99.90
4002;DHT22;2015;48.670;9.060;2022-11-20T13:38:55;7.90;99.90
4002;DHT22;2015;48.670;9.060;2022-11-20T13:41:32;7.80;99.90
4002;DHT22;2015;48.670;9.060;2022-11-20T13:47:03;7.60;99.90
4002;DHT22;2015;48.670;9.060;2022-11-20T13:49:39;7.60;99.90
4002;DHT22;2015;48.670;9.060;2022-11-20T13:55:16;7.50;99.90
4002;DHT22;2015;48.670;9.060;2022-11-20T14:01:00;7.50;99.90
4002;DHT22;2015;48.670;9.060;2022-11-20T14:03:33;7.40;99.90
4002;DHT22;2015;48.670;9.060;2022-11-20T14:06:30;7.40;99.90
4002;DHT22;2015;48.670;9.060;2022-11-20T14:09:03;7.30;99.90
4002;DHT22;2015;48.670;9.060;2022-11-20T14:11:34;7.20;99.90
4002;DHT22;2015;48.670;9.060;2022-11-20T14:14:17;7.10;99.90
4002;DHT22;2015;48.670;9.060;2022-11-20T14:16:51;7.10;99.90
4002;DHT22;2015;48.670;9.060;2022-11-20T14:19:26;7.00;99.90
4002;DHT22;2015;48.670;9.060;2022-11-20T14:22:16;7.10;99.90
4002;DHT22;2015;48.670;9.060;2022-11-20T14:27:38;7.00;99.90
4002;DHT22;2015;48.670;9.060;2022-11-20T14:30:20;7.00;99.90
4002;DHT22;2015;48.670;9.060;2022-11-20T14:32:54;7.00;99.90
4002;DHT22;2015;48.670;9.060;2022-11-20T14:35:30;7.00;99.90
4002;DHT22;2015;48.670;9.060;2022-11-20T14:38:03;7.00;99.90
4002;DHT22;2015;48.670;9.060;2022-11-20T14:40:35;7.00;99.90
4002;DHT22;2015;48.670;9.060;2022-11-20T14:43:17;7.00;99.90
4002;DHT22;2015;48.670;9.060;2022-11-20T14:46:08;7.00;99.90
4002;DHT22;2015;48.670;9.060;2022-11-20T14:48:50;7.00;99.90
4002;DHT22;2015;48.670;9.060;2022-11-20T14:54:17;6.90;99.90
4002;DHT22;2015;48.670;9.060;2022-11-20T14:57:03;6.80;99.90
4002;DHT22;2015;48.670;9.060;2022-11-20T14:59:35;6.80;99.90
4002;DHT22;2015;48.670;9.060;2022-11-20T15:02:11;6.80;99.90
4002;DHT22;2015;48.670;9.060;2022-11-20T15:05:00;6.70;99.90
4002;DHT22;2015;48.670;9.060;2022-11-20T15:07:43;6.70;99.90
4002;DHT22;2015;48.670;9.060;2022-11-20T15:10:23;6.60;99.90
4002;DHT22;2015;48.670;9.060;2022-11-20T15:12:59;6.50;99.90
4002;DHT22;2015;48.670;9.060;2022-11-20T15:15:51;6.50;99.90
4002;DHT22;2015;48.670;9.060;2022-11-20T15:18:32;6.50;99.90
4002;DHT22;2015;48.670;9.060;2022-11-20T15:21:11;6.40;99.90
4002;DHT22;2015;48.670;9.060;2022-11-20T15:23:43;6.40;99.90
4002;DHT22;2015;48.670;9.060;2022-11-20T15:26:25;6.30;99.90
4002;DHT22;2015;48.670;9.060;2022-11-20T15:28:57;6.20;99.90
4002;DHT22;2015;48.670;9.060;2022-11-20T15:31:30;6.20;99.90
4002;DHT22;2015;48.670;9.060;2022-11-20T15:34:01;6.20;99.90
4002;DHT22;2015;48.670;9.060;2022-11-20T15:36:33;6.10;99.90
4002;DHT22;2015;48.670;9.060;2022-11-20T15:39:05;6.10;99.90
4002;DHT22;2015;48.670;9.060;2022-11-20T15:41:39;6.10;99.90
4002;DHT22;2015;48.670;9.060;2022-11-20T15:44:10;6.10;99.90
4002;DHT22;2015;48.670;9.060;2022-11-20T15:46:42;6.10;99.90
4002;DHT22;2015;48.670;9.060;2022-11-20T15:49:17;6.00;99.90
4002;DHT22;2015;48.670;9.060;2022-11-20T15:51:50;6.00;99.90
4002;DHT22;2015;48.670;9.060;2022-11-20T15:54:24;6.00;99.90
4002;DHT22;2015;48.670;9.060;2022-11-20T15:56:56;6.00;99.90
4002;DHT22;2015;48.670;9.060;2022-11-20T15:59:28;5.90;99.90
4002;DHT22;2015;48.670;9.060;2022-11-20T16:02:00;6.00;99.90
4002;DHT22;2015;48.670;9.060;2022-11-20T16:04:31;5.90;99.90
4002;DHT22;2015;48.670;9.060;2022-11-20T16:07:03;6.00;99.90
4002;DHT22;2015;48.670;9.060;2022-11-20T16:09:35;6.00;99.90
4002;DHT22;2015;48.670;9.060;2022-11-20T16:12:09;6.00;99.90
4002;DHT22;2015;48.670;9.060;2022-11-20T16:15:01;6.00;99.90
4002;DHT22;2015;48.670;9.060;2022-11-20T16:17:51;6.00;99.90
4002;DHT22;2015;48.670;9.060;2022-11-20T16:20:23;6.00;99.90
4002;DHT22;2015;48.670;9.060;2022-11-20T16:22:55;6.00;99.90
4002;DHT22;2015;48.670;9.060;2022-11-20T16:25:27;6.10;99.90
4002;DHT22;2015;48.670;9.060;2022-11-20T16:27:59;6.10;99.90
4002;DHT22;2015;48.670;9.060;2022-11-20T16:30:32;6.20;99.90
4002;DHT22;2015;48.670;9.060;2022-11-20T16:33:10;6.20;99.90
4002;DHT22;2015;48.670;9.060;2022-11-20T16:35:43;6.20;99.90
4002;DHT22;2015;48.670;9.060;2022-11-20T16:38:15;6.20;99.90
4002;DHT22;2015;48.670;9.060;2022-11-20T16:40:46;6.30;99.90
4002;DHT22;2015;48.670;9.060;2022-11-20T16:43:18;6.20;99.90
4002;DHT22;2015;48.670;9.060;2022-11-20T16:45:50;6.30;99.90
4002;DHT22;2015;48.670;9.060;2022-11-20T16:48:22;6.30;99.90
4002;DHT22;2015;48.670;9.060;2022-11-20T16:50:53;6.30;99.90
4002;DHT22;2015;48.670;9.060;2022-11-20T16:53:25;6.30;99.90
4002;DHT22;2015;48.670;9.060;2022-11-20T16:55:57;6.30;99.90
4002;DHT22;2015;48.670;9.060;2022-11-20T16:58:28;6.30;99.90
4002;DHT22;2015;48.670;9.060;2022-11-20T17:01:07;6.30;99.90
4002;DHT22;2015;48.670;9.060;2022-11-20T17:03:43;6.30;99.90
4002;DHT22;2015;48.670;9.060;2022-11-20T17:06:25;6.30;99.90
4002;DHT22;2015;48.670;9.060;2022-11-20T17:08:57;6.30;99.90
4002;DHT22;2015;48.670;9.060;2022-11-20T17:11:30;6.30;99.90
4002;DHT22;2015;48.670;9.060;2022-11-20T17:14:02;6.30;99.90
4002;DHT22;2015;48.670;9.060;2022-11-20T17:16:35;6.30;99.90
4002;DHT22;2015;48.670;9.060;2022-11-20T17:19:08;6.30;99.90
4002;DHT22;2015;48.670;9.060;2022-11-20T17:21:40;6.30;99.90
4002;DHT22;2015;48.670;9.060;2022-11-20T17:24:12;6.30;99.90
4002;DHT22;2015;48.670;9.060;2022-11-20T17:26:47;6.30;99.90
4002;DHT22;2015;48.670;9.060;2022-11-20T17:29:19;6.30;99.90
4002;DHT22;2015;48.670;9.060;2022-11-20T17:31:54;6.20;99.90
4002;DHT22;2015;48.670;9.060;2022-11-20T17:34:26;6.30;99.90
4002;DHT22;2015;48.670;9.060;2022-11-20T17:36:58;6.30;99.90
4002;DHT22;2015;48.670;9.060;2022-11-20T17:39:30;6.30;99.90
4002;DHT22;2015;48.670;9.060;2022-11-20T17:42:02;6.30;99.90
4002;DHT22;2015;48.670;9.060;2022-11-20T17:44:52;6.30;99.90
4002;DHT22;2015;48.670;9.060;2022-11-20T17:47:24;6.30;99.90
4002;DHT22;2015;48.670;9.060;2022-11-20T17:49:56;6.30;99.90
4002;DHT22;2015;48.670;9.060;2022-11-20T17:52:29;6.30;99.90
4002;DHT22;2015;48.670;9.060;2022-11-20T17:55:00;6.30;99.90
4002;DHT22;2015;48.670;9.060;2022-11-20T17:57:32;6.40;99.90
4002;DHT22;2015;48.670;9.060;2022-11-20T18:00:23;6.30;99.90
4002;DHT22;2015;48.670;9.060;2022-11-20T18:02:55;6.30;99.90
4002;DHT22;2015;48.670;9.060;2022-11-20T18:05:27;6.30;99.90
4002;DHT22;2015;48.670;9.060;2022-11-20T18:07:59;6.30;99.90
4002;DHT22;2015;48.670;9.060;2022-11-20T18:10:31;6.30;99.90
4002;DHT22;2015;48.670;9.060;2022-11-20T18:13:03;6.30;99.90
4002;DHT22;2015;48.670;9.060;2022-11-20T18:15:35;6.40;99.90
4002;DHT22;2015;48.670;9.060;2022-11-20T18:18:07;6.30;99.90
4002;DHT22;2015;48.670;9.060;2022-11-20T18:20:39;6.30;99.90
4002;DHT22;2015;48.670;9.060;2022-11-20T18:23:10;6.30;99.90
4002;DHT22;2015;48.670;9.060;2022-11-20T18:25:42;6.30;99.90
4002;DHT22;2015;48.670;9.060;2022-11-20T18:28:17;6.30;99.90
4002;DHT22;2015;48.670;9.060;2022-11-20T18:30:50;6.30;99.90
4002;DHT22;2015;48.670;9.060;2022-11-20T18:33:22;6.30;99.90
4002;DHT22;2015;48.670;9.060;2022-11-20T18:36:11;6.30;99.90
4002;DHT22;2015;48.670;9.060;2022-11-20T18:38:45;6.20;99.90
4002;DHT22;2015;48.670;9.060;2022-11-20T18:41:19;6.20;99.90
4002;DHT22;2015;48.670;9.060;2022-11-20T18:44:15;6.10;99.90